createdAt,value
2024-02-21T00:00:16.185Z,9.89
2024-02-21T00:02:42.817Z,9.90
2024-02-21T00:05:09.821Z,9.97
2024-02-21T00:07:36.549Z,9.95
2024-02-21T00:10:04.410Z,9.99
2024-02-21T00:12:30.981Z,9.93
2024-02-21T00:14:58.045Z,9.95
2024-02-21T00:17:27.241Z,9.89
2024-02-21T00:19:54.000Z,9.94
2024-02-21T00:22:20.651Z,9.86
2024-02-21T00:24:47.219Z,9.81
2024-02-21T00:27:13.979Z,9.75
2024-02-21T00:29:40.624Z,9.77
2024-02-21T00:32:07.411Z,9.75
2024-02-21T00:34:36.500Z,9.78
2024-02-21T00:37:03.268Z,9.77
2024-02-21T00:39:29.824Z,9.79
2024-02-21T00:41:56.596Z,9.73
2024-02-21T00:44:23.363Z,9.64
2024-02-21T00:46:50.153Z,9.81
2024-02-21T00:49:17.055Z,9.73
2024-02-21T00:51:43.633Z,9.86
2024-02-21T00:54:10.349Z,9.83
2024-02-21T00:56:37.140Z,9.75
2024-02-21T00:59:03.844Z,9.82
2024-02-21T01:01:30.743Z,9.77
2024-02-21T01:03:57.847Z,9.74
2024-02-21T01:06:24.774Z,9.68
2024-02-21T01:08:51.610Z,9.68
2024-02-21T01:11:18.534Z,9.61
2024-02-21T01:13:45.476Z,9.60
2024-02-21T01:16:12.264Z,9.62
2024-02-21T01:18:40.903Z,9.62
2024-02-21T01:21:08.922Z,9.63
2024-02-21T01:23:36.645Z,9.67
2024-02-21T01:26:04.642Z,9.61
2024-02-21T01:28:31.861Z,9.69
2024-02-21T01:30:58.655Z,9.76
2024-02-21T01:33:25.452Z,9.70
2024-02-21T01:35:52.425Z,9.77
2024-02-21T01:38:19.333Z,9.73
2024-02-21T01:40:46.268Z,9.73
2024-02-21T01:43:21.657Z,9.62
2024-02-21T01:45:51.708Z,9.58
2024-02-21T01:48:19.520Z,9.68
2024-02-21T01:50:47.812Z,9.62
2024-02-21T01:53:20.540Z,9.65
2024-02-21T01:55:47.930Z,9.66
2024-02-21T01:58:15.932Z,9.69
2024-02-21T02:00:44.270Z,9.61
2024-02-21T02:03:18.179Z,9.72
2024-02-21T02:05:49.565Z,9.79
2024-02-21T02:08:25.597Z,9.81
2024-02-21T02:10:53.331Z,9.62
2024-02-21T02:13:20.212Z,9.84
2024-02-21T02:15:49.552Z,9.82
2024-02-21T02:18:18.197Z,9.88
2024-02-21T02:20:45.825Z,9.82
2024-02-21T02:23:27.996Z,9.86
2024-02-21T02:25:55.072Z,9.86
2024-02-21T02:28:22.429Z,9.82
2024-02-21T02:30:49.704Z,9.86
2024-02-21T02:33:18.937Z,9.84
2024-02-21T02:35:46.573Z,9.85
2024-02-21T02:38:14.325Z,9.85
2024-02-21T02:40:42.426Z,9.70
2024-02-21T02:43:09.629Z,9.82
2024-02-21T02:45:36.335Z,9.86
2024-02-21T02:48:03.329Z,9.84
2024-02-21T02:50:30.127Z,9.83
2024-02-21T02:52:57.049Z,9.87
2024-02-21T02:55:24.256Z,9.91
2024-02-21T02:57:51.015Z,9.87
2024-02-21T03:00:18.443Z,9.89
2024-02-21T03:02:47.637Z,9.87
2024-02-21T03:05:19.935Z,9.91
2024-02-21T03:07:47.997Z,9.79
2024-02-21T03:10:18.226Z,9.82
2024-02-21T03:12:45.403Z,9.81
2024-02-21T03:15:13.450Z,9.78
2024-02-21T03:17:40.669Z,9.83
2024-02-21T03:20:11.442Z,9.80
2024-02-21T03:22:39.181Z,9.78
2024-02-21T03:25:07.577Z,9.82
2024-02-21T03:27:34.588Z,9.79
2024-02-21T03:30:01.347Z,9.82
2024-02-21T03:32:29.542Z,9.81
2024-02-21T03:34:56.450Z,9.79
2024-02-21T03:37:23.336Z,9.73
2024-02-21T03:39:50.029Z,9.84
2024-02-21T03:42:16.602Z,9.84
2024-02-21T03:44:43.253Z,9.88
2024-02-21T03:47:11.726Z,9.92
2024-02-21T03:49:38.988Z,9.95
2024-02-21T03:52:05.821Z,9.82
2024-02-21T03:54:33.437Z,9.73
2024-02-21T03:57:00.165Z,9.84
2024-02-21T03:59:26.935Z,9.85
2024-02-21T04:01:54.500Z,9.88
2024-02-21T04:04:22.153Z,9.86
2024-02-21T04:06:49.625Z,9.87
2024-02-21T04:09:16.699Z,9.90
2024-02-21T04:11:43.537Z,9.95
2024-02-21T04:14:12.369Z,9.97
2024-02-21T04:16:40.089Z,9.90
2024-02-21T04:19:06.836Z,9.90
2024-02-21T04:21:33.654Z,9.81
2024-02-21T04:24:00.673Z,9.76
2024-02-21T04:26:27.359Z,9.87
2024-02-21T04:28:54.214Z,9.91
2024-02-21T04:31:20.953Z,9.95
2024-02-21T04:33:47.818Z,9.81
2024-02-21T04:36:14.501Z,9.95
2024-02-21T04:38:41.949Z,9.88
2024-02-21T04:41:09.174Z,9.90
2024-02-21T04:43:36.174Z,9.94
2024-02-21T04:46:03.103Z,9.93
2024-02-21T04:48:29.841Z,9.79
2024-02-21T04:50:56.639Z,9.89
2024-02-21T04:53:23.376Z,9.86
2024-02-21T04:55:50.007Z,9.88
2024-02-21T04:58:16.808Z,9.82
2024-02-21T05:00:43.509Z,9.87
2024-02-21T05:03:10.272Z,9.89
2024-02-21T05:05:37.200Z,9.93
2024-02-21T05:08:04.386Z,9.93
2024-02-21T05:10:31.292Z,9.87
2024-02-21T05:12:58.772Z,9.84
2024-02-21T05:15:25.389Z,9.84
2024-02-21T05:17:52.131Z,9.85
2024-02-21T05:20:18.866Z,9.89
2024-02-21T05:22:45.592Z,9.90
2024-02-21T05:25:12.265Z,9.90
2024-02-21T05:27:39.674Z,9.90
2024-02-21T05:30:07.815Z,9.90
2024-02-21T05:32:34.622Z,9.86
2024-02-21T05:35:01.820Z,9.87
2024-02-21T05:37:28.652Z,9.86
2024-02-21T05:39:55.366Z,9.78
2024-02-21T05:42:21.969Z,9.82
2024-02-21T05:44:48.702Z,9.80
2024-02-21T05:47:16.746Z,9.88
2024-02-21T05:49:43.886Z,9.88
2024-02-21T05:52:10.948Z,9.87
2024-02-21T05:54:41.054Z,9.85
2024-02-21T05:57:09.026Z,9.89
2024-02-21T05:59:37.347Z,9.81
2024-02-21T06:02:05.337Z,9.84
2024-02-21T06:04:33.278Z,9.75
2024-02-21T06:07:00.511Z,9.78
2024-02-21T06:09:27.157Z,9.74
2024-02-21T06:11:53.820Z,9.72
2024-02-21T06:14:21.106Z,9.71
2024-02-21T06:16:47.836Z,9.70
2024-02-21T06:19:14.707Z,9.66
2024-02-21T06:21:41.537Z,9.65
2024-02-21T06:24:08.241Z,9.65
2024-02-21T06:26:34.986Z,9.65
2024-02-21T06:29:02.842Z,9.60
2024-02-21T06:31:30.292Z,9.69
2024-02-21T06:33:57.204Z,9.64
2024-02-21T06:36:24.158Z,9.65
2024-02-21T06:38:50.778Z,9.62
2024-02-21T06:41:19.795Z,9.55
2024-02-21T06:43:50.156Z,9.57
2024-02-21T06:46:27.573Z,9.52
2024-02-21T06:48:54.665Z,9.60
2024-02-21T06:51:21.535Z,9.57
2024-02-21T06:53:48.201Z,9.53
2024-02-21T06:56:15.121Z,9.61
2024-02-21T06:58:41.855Z,9.58
2024-02-21T07:01:09.338Z,9.53
2024-02-21T07:03:36.085Z,9.69
2024-02-21T07:06:02.975Z,9.68
2024-02-21T07:08:30.175Z,9.57
2024-02-21T07:10:57.016Z,9.68
2024-02-21T07:13:24.046Z,9.70
2024-02-21T07:15:50.939Z,9.63
2024-02-21T07:18:18.076Z,9.75
2024-02-21T07:20:44.794Z,9.70
2024-02-21T07:23:11.451Z,9.77
2024-02-21T07:25:38.192Z,9.76
2024-02-21T07:28:05.273Z,9.75
2024-02-21T07:30:32.013Z,9.88
2024-02-21T07:32:58.814Z,9.87
2024-02-21T07:35:25.584Z,9.90
2024-02-21T07:37:52.244Z,9.90
2024-02-21T07:40:19.329Z,9.71
2024-02-21T07:42:49.050Z,9.98
2024-02-21T07:45:19.393Z,9.93
2024-02-21T07:47:46.184Z,9.89
2024-02-21T07:50:13.064Z,10.06
2024-02-21T07:52:39.850Z,10.09
2024-02-21T07:55:06.676Z,9.94
2024-02-21T07:57:33.332Z,10.03
2024-02-21T07:59:59.940Z,10.14
2024-02-21T08:02:26.552Z,10.14
2024-02-21T08:04:53.215Z,10.04
2024-02-21T08:07:19.954Z,10.14
2024-02-21T08:09:46.625Z,10.17
2024-02-21T08:12:13.321Z,10.21
2024-02-21T08:14:39.932Z,10.35
2024-02-21T08:17:06.857Z,10.34
2024-02-21T08:19:33.692Z,10.39
2024-02-21T08:22:00.722Z,10.40
2024-02-21T08:24:28.370Z,10.54
2024-02-21T08:26:54.915Z,10.36
2024-02-21T08:29:21.668Z,10.57
2024-02-21T08:31:48.411Z,10.67
2024-02-21T08:34:15.242Z,10.75
2024-02-21T08:36:42.016Z,10.68
2024-02-21T08:39:10.939Z,10.66
2024-02-21T08:41:48.190Z,10.73
2024-02-21T08:44:29.034Z,10.71
2024-02-21T08:46:56.478Z,10.64
2024-02-21T08:49:23.867Z,10.56
2024-02-21T08:51:50.923Z,10.75
2024-02-21T08:54:18.008Z,10.73
2024-02-21T08:56:44.759Z,10.74
2024-02-21T08:59:11.830Z,10.69
2024-02-21T09:01:38.914Z,10.84
2024-02-21T09:04:06.485Z,10.88
2024-02-21T09:06:34.727Z,10.89
2024-02-21T09:09:01.840Z,10.97
2024-02-21T09:11:29.134Z,10.91
2024-02-21T09:13:56.491Z,10.91
2024-02-21T09:16:24.279Z,10.82
2024-02-21T09:18:51.219Z,11.00
2024-02-21T09:21:17.983Z,10.92
2024-02-21T09:23:46.800Z,11.07
2024-02-21T09:26:17.107Z,10.96
2024-02-21T09:28:46.889Z,11.23
2024-02-21T09:31:13.641Z,11.17
2024-02-21T09:33:40.260Z,11.15
2024-02-21T09:36:07.324Z,11.21
2024-02-21T09:38:33.972Z,11.25
2024-02-21T09:41:21.596Z,11.40
2024-02-21T09:43:51.305Z,11.39
2024-02-21T09:46:22.198Z,11.37
2024-02-21T09:49:21.160Z,11.39
2024-02-21T09:51:52.296Z,11.34
2024-02-21T09:54:19.702Z,11.30
2024-02-21T09:56:48.172Z,11.25
2024-02-21T09:59:18.279Z,11.15
2024-02-21T10:01:45.703Z,11.07
2024-02-21T10:04:12.769Z,11.11
2024-02-21T10:06:40.259Z,10.79
2024-02-21T10:09:08.101Z,10.60
2024-02-21T10:11:38.331Z,10.60
2024-02-21T10:14:06.952Z,10.54
2024-02-21T10:16:34.943Z,10.30
2024-02-21T10:19:01.932Z,10.42
2024-02-21T10:21:28.658Z,10.37
2024-02-21T10:23:55.576Z,10.46
2024-02-21T10:26:23.743Z,10.40
2024-02-21T10:28:52.772Z,10.38
2024-02-21T10:31:27.171Z,10.47
2024-02-21T10:33:58.257Z,10.34
2024-02-21T10:36:26.071Z,10.49
2024-02-21T10:38:53.606Z,10.59
2024-02-21T10:41:22.383Z,10.67
2024-02-21T10:43:55.166Z,10.76
2024-02-21T10:46:24.097Z,10.88
2024-02-21T10:49:14.112Z,10.92
2024-02-21T10:51:45.136Z,10.70
2024-02-21T10:54:42.106Z,10.81
2024-02-21T10:57:11.493Z,10.82
2024-02-21T10:59:40.336Z,10.82
2024-02-21T11:02:07.516Z,10.78
2024-02-21T11:04:39.801Z,10.87
2024-02-21T11:07:10.868Z,10.82
2024-02-21T11:09:38.732Z,10.71
2024-02-21T11:12:07.213Z,10.64
2024-02-21T11:14:36.659Z,10.81
2024-02-21T11:17:04.804Z,10.63
2024-02-21T11:19:32.508Z,10.79
2024-02-21T11:22:01.823Z,10.84
2024-02-21T11:24:34.655Z,10.96
2024-02-21T11:27:13.637Z,11.03
2024-02-21T11:29:47.630Z,11.04
2024-02-21T11:32:22.186Z,11.06
2024-02-21T11:35:07.063Z,11.17
2024-02-21T11:37:39.811Z,11.21
2024-02-21T11:40:12.281Z,11.32
2024-02-21T11:42:40.137Z,11.25
2024-02-21T11:45:07.804Z,11.39
2024-02-21T11:47:34.570Z,11.34
2024-02-21T11:50:01.671Z,11.37
2024-02-21T11:52:29.193Z,11.55
2024-02-21T11:55:05.627Z,11.44
2024-02-21T11:57:32.477Z,11.54
2024-02-21T12:00:00.631Z,11.54
2024-02-21T12:02:31.910Z,11.51
2024-02-21T12:04:58.816Z,11.63
2024-02-21T12:07:26.336Z,11.62
2024-02-21T12:09:53.703Z,11.93
2024-02-21T12:12:23.603Z,12.07
2024-02-21T12:15:00.275Z,12.21
2024-02-21T12:17:27.057Z,12.13
2024-02-21T12:19:53.869Z,12.11
2024-02-21T12:22:20.703Z,12.27
2024-02-21T12:24:48.712Z,12.36
2024-02-21T12:27:15.326Z,12.48
2024-02-21T12:29:42.061Z,12.63
2024-02-21T12:32:08.860Z,12.59
2024-02-21T12:34:44.253Z,12.78
2024-02-21T12:37:20.958Z,12.98
2024-02-21T12:39:48.412Z,13.15
2024-02-21T12:42:15.115Z,13.14
2024-02-21T12:44:43.149Z,13.21
2024-02-21T12:47:10.248Z,13.22
2024-02-21T12:49:37.171Z,13.42
2024-02-21T12:52:04.836Z,13.35
2024-02-21T12:54:32.542Z,13.33
2024-02-21T12:56:59.321Z,13.23
2024-02-21T12:59:27.073Z,13.51
2024-02-21T13:01:54.075Z,13.40
2024-02-21T13:04:22.788Z,13.52
2024-02-21T13:06:50.118Z,13.53
2024-02-21T13:09:16.918Z,13.72
2024-02-21T13:11:45.666Z,13.72
2024-02-21T13:14:12.775Z,13.53
2024-02-21T13:16:42.098Z,13.48
2024-02-21T13:19:09.781Z,13.36
2024-02-21T13:21:37.098Z,13.47
2024-02-21T13:24:04.177Z,13.48
2024-02-21T13:26:30.904Z,13.37
2024-02-21T13:28:57.654Z,13.43
2024-02-21T13:31:26.264Z,13.46
2024-02-21T13:33:53.409Z,13.33
2024-02-21T13:36:20.161Z,13.28
2024-02-21T13:38:48.003Z,13.45
2024-02-21T13:41:14.723Z,13.60
2024-02-21T13:43:41.602Z,13.63
2024-02-21T13:46:11.008Z,13.43
2024-02-21T13:48:38.294Z,13.38
2024-02-21T13:51:05.903Z,13.42
2024-02-21T13:53:32.547Z,13.21
2024-02-21T13:55:59.410Z,13.37
2024-02-21T13:58:27.441Z,13.31
2024-02-21T14:00:54.822Z,13.34
2024-02-21T14:03:21.875Z,13.26
2024-02-21T14:05:49.696Z,13.29
2024-02-21T14:08:16.765Z,13.10
2024-02-21T14:10:43.826Z,12.90
2024-02-21T14:13:10.617Z,12.97
2024-02-21T14:15:38.607Z,12.75
2024-02-21T14:18:10.259Z,12.65
2024-02-21T14:20:37.365Z,12.68
2024-02-21T14:25:32.244Z,12.55
2024-02-21T14:27:59.279Z,12.43
2024-02-21T14:30:26.563Z,12.26
2024-02-21T14:32:53.278Z,12.24
2024-02-21T14:35:20.086Z,12.21
2024-02-21T14:37:47.211Z,12.34
2024-02-21T14:40:14.086Z,12.23
2024-02-21T14:42:40.700Z,12.22
2024-02-21T14:45:07.912Z,12.24
2024-02-21T14:47:34.973Z,12.13
2024-02-21T14:50:03.831Z,12.06
2024-02-21T14:52:30.816Z,12.10
2024-02-21T14:54:57.718Z,12.11
2024-02-21T14:57:24.423Z,12.12
2024-02-21T14:59:53.851Z,12.00
2024-02-21T15:02:20.798Z,11.97
2024-02-21T15:04:47.519Z,12.05
2024-02-21T15:07:14.267Z,11.99
2024-02-21T15:09:40.908Z,11.97
2024-02-21T15:12:07.945Z,11.91
2024-02-21T15:14:34.607Z,11.80
2024-02-21T15:17:01.413Z,11.63
2024-02-21T15:19:28.376Z,11.58
2024-02-21T15:21:55.386Z,11.41
2024-02-21T15:24:22.139Z,11.24
2024-02-21T15:26:48.784Z,11.20
2024-02-21T15:29:15.454Z,10.91
2024-02-21T15:31:47.637Z,10.92
2024-02-21T15:34:16.705Z,10.97
2024-02-21T15:36:43.813Z,10.94
2024-02-21T15:39:11.821Z,10.83
2024-02-21T15:41:38.475Z,10.93
2024-02-21T15:44:05.600Z,10.88
2024-02-21T15:46:35.012Z,10.75
2024-02-21T15:49:01.954Z,10.56
2024-02-21T15:51:28.879Z,10.54
2024-02-21T15:53:55.564Z,10.35
2024-02-21T15:56:22.367Z,10.24
2024-02-21T15:58:49.570Z,10.03
2024-02-21T16:01:17.560Z,10.13
2024-02-21T16:03:44.249Z,9.93
2024-02-21T16:06:11.581Z,9.71
2024-02-21T16:08:41.863Z,9.65
2024-02-21T16:11:17.259Z,9.62
2024-02-21T16:13:44.775Z,9.61
2024-02-21T16:16:11.774Z,9.53
2024-02-21T16:18:38.888Z,9.40
2024-02-21T16:21:06.396Z,9.46
2024-02-21T16:23:33.602Z,9.40
2024-02-21T16:26:00.373Z,9.28
2024-02-21T16:28:27.106Z,9.27
2024-02-21T16:30:54.505Z,9.14
2024-02-21T16:33:21.180Z,9.12
2024-02-21T16:35:47.928Z,9.08
2024-02-21T16:38:14.605Z,9.00
2024-02-21T16:40:42.275Z,8.99
2024-02-21T16:43:08.874Z,8.92
2024-02-21T16:45:36.214Z,8.93
2024-02-21T16:48:07.290Z,8.88
2024-02-21T16:50:41.889Z,8.85
2024-02-21T16:53:16.053Z,8.74
2024-02-21T16:55:42.912Z,8.76
2024-02-21T16:58:10.806Z,8.74
2024-02-21T17:00:40.264Z,8.72
2024-02-21T17:03:07.296Z,8.81
2024-02-21T17:05:37.621Z,8.68
2024-02-21T17:08:08.390Z,8.72
2024-02-21T17:10:36.059Z,8.73
2024-02-21T17:13:05.311Z,8.65
2024-02-21T17:15:31.939Z,8.73
2024-02-21T17:18:00.061Z,8.71
2024-02-21T17:20:27.020Z,8.67
2024-02-21T17:22:53.913Z,8.72
2024-02-21T17:25:20.611Z,8.70
2024-02-21T17:27:47.324Z,8.75
2024-02-21T17:30:14.160Z,8.81
2024-02-21T17:32:40.875Z,8.76
2024-02-21T17:35:07.918Z,8.77
2024-02-21T17:37:37.429Z,8.79
2024-02-21T17:40:08.465Z,8.82
2024-02-21T17:42:35.849Z,8.81
2024-02-21T17:45:04.295Z,8.88
2024-02-21T17:47:31.959Z,8.83
2024-02-21T17:49:59.235Z,8.79
2024-02-21T17:52:28.319Z,8.89
2024-02-21T17:54:55.051Z,8.82
2024-02-21T17:57:22.387Z,8.85
2024-02-21T17:59:48.998Z,8.79
2024-02-21T18:02:20.953Z,8.84
2024-02-21T18:04:48.945Z,8.89
2024-02-21T18:07:16.023Z,8.84
2024-02-21T18:09:42.869Z,8.79
2024-02-21T18:12:09.757Z,8.74
2024-02-21T18:14:36.979Z,8.58
2024-02-21T18:17:04.099Z,8.73
2024-02-21T18:19:36.121Z,8.69
2024-02-21T18:22:03.505Z,8.83
2024-02-21T18:24:34.107Z,8.70
2024-02-21T18:27:01.273Z,8.79
2024-02-21T18:29:37.876Z,8.74
2024-02-21T18:32:09.633Z,8.85
2024-02-21T18:34:37.517Z,8.77
2024-02-21T18:37:04.668Z,8.84
2024-02-21T18:39:32.186Z,8.78
2024-02-21T18:41:58.964Z,8.70
2024-02-21T18:44:25.683Z,8.69
2024-02-21T18:46:52.501Z,8.73
2024-02-21T18:49:20.485Z,8.76
2024-02-21T18:51:47.638Z,8.73
2024-02-21T18:54:14.562Z,8.65
2024-02-21T18:56:46.225Z,8.84
2024-02-21T18:59:13.529Z,8.82
2024-02-21T19:01:40.840Z,8.80
2024-02-21T19:04:07.717Z,8.66
2024-02-21T19:06:35.187Z,8.71
2024-02-21T19:09:06.065Z,8.79
2024-02-21T19:11:33.205Z,8.79
2024-02-21T19:14:00.157Z,8.86
2024-02-21T19:16:27.835Z,8.87
2024-02-21T19:18:54.788Z,8.89
2024-02-21T19:21:21.633Z,8.76
2024-02-21T19:23:48.363Z,8.85
2024-02-21T19:26:16.428Z,8.99
2024-02-21T19:28:43.363Z,9.00
2024-02-21T19:31:10.233Z,8.98
2024-02-21T19:33:37.938Z,9.02
2024-02-21T19:36:05.438Z,9.09
2024-02-21T19:38:32.250Z,9.08
2024-02-21T19:40:59.041Z,9.09
2024-02-21T19:43:26.314Z,9.02
2024-02-21T19:45:53.557Z,9.09
2024-02-21T19:48:21.533Z,8.99
2024-02-21T19:50:49.233Z,9.07
2024-02-21T19:53:16.011Z,9.07
2024-02-21T19:55:43.007Z,8.94
2024-02-21T19:58:09.705Z,9.07
2024-02-21T20:00:37.102Z,9.06
2024-02-21T20:03:04.598Z,8.97
2024-02-21T20:05:32.733Z,9.02
2024-02-21T20:08:00.018Z,9.00
2024-02-21T20:10:27.729Z,9.00
2024-02-21T20:12:54.527Z,9.07
2024-02-21T20:15:24.008Z,9.02
2024-02-21T20:17:50.895Z,8.99
2024-02-21T20:20:17.977Z,8.86
2024-02-21T20:22:44.840Z,8.99
2024-02-21T20:25:15.775Z,8.94
2024-02-21T20:27:42.500Z,8.87
2024-02-21T20:30:09.404Z,9.00
2024-02-21T20:32:36.393Z,8.93
2024-02-21T20:35:04.531Z,9.02
2024-02-21T20:37:31.341Z,9.13
2024-02-21T20:39:58.486Z,9.11
2024-02-21T20:42:25.566Z,9.05
2024-02-21T20:44:52.415Z,9.02
2024-02-21T20:47:20.978Z,9.13
2024-02-21T20:49:50.196Z,9.12
2024-02-21T20:52:16.954Z,9.19
2024-02-21T20:54:43.643Z,9.23
2024-02-21T20:57:11.441Z,9.18
2024-02-21T20:59:38.584Z,9.27
2024-02-21T21:02:06.160Z,9.23
2024-02-21T21:04:33.497Z,9.25
2024-02-21T21:07:00.786Z,9.29
2024-02-21T21:09:27.641Z,9.34
2024-02-21T21:11:54.615Z,9.31
2024-02-21T21:14:21.572Z,9.30
2024-02-21T21:16:48.369Z,9.32
2024-02-21T21:19:15.774Z,9.30
2024-02-21T21:21:45.072Z,9.30
2024-02-21T21:24:13.727Z,9.31
2024-02-21T21:26:40.434Z,9.28
2024-02-21T21:29:07.311Z,9.40
2024-02-21T21:31:34.102Z,9.41
2024-02-21T21:34:01.919Z,9.45
2024-02-21T21:36:31.919Z,9.45
2024-02-21T21:38:59.768Z,9.40
2024-02-21T21:41:27.294Z,9.40
2024-02-21T21:43:54.032Z,9.44
2024-02-21T21:46:20.714Z,9.39
2024-02-21T21:48:47.378Z,9.40
2024-02-21T21:51:15.589Z,9.50
2024-02-21T21:53:44.758Z,9.55
2024-02-21T21:56:11.495Z,9.50
2024-02-21T21:58:38.340Z,9.55
2024-02-21T22:01:05.331Z,9.53
2024-02-21T22:03:32.020Z,9.45
2024-02-21T22:05:59.737Z,9.42
2024-02-21T22:08:26.479Z,9.52
2024-02-21T22:10:53.219Z,9.52
2024-02-21T22:13:20.063Z,9.53
2024-02-21T22:15:47.757Z,9.55
2024-02-21T22:18:14.724Z,9.61
2024-02-21T22:20:41.924Z,9.53
2024-02-21T22:23:10.600Z,9.53
2024-02-21T22:25:37.638Z,9.59
2024-02-21T22:28:04.717Z,9.56
2024-02-21T22:30:31.342Z,9.58
2024-02-21T22:32:57.991Z,9.63
2024-02-21T22:35:24.776Z,9.52
2024-02-21T22:37:51.966Z,9.61
2024-02-21T22:40:18.954Z,9.60
2024-02-21T22:42:45.921Z,9.60
2024-02-21T22:45:12.587Z,9.63
2024-02-21T22:47:39.226Z,9.70
2024-02-21T22:50:06.260Z,9.58
2024-02-21T22:52:33.066Z,9.69
2024-02-21T22:55:01.129Z,9.73
2024-02-21T22:57:27.818Z,9.69
2024-02-21T22:59:54.320Z,9.71
2024-02-21T23:02:21.075Z,9.73
2024-02-21T23:04:47.741Z,9.75
2024-02-21T23:07:15.473Z,9.82
2024-02-21T23:09:42.047Z,9.82
2024-02-21T23:12:09.340Z,9.84
2024-02-21T23:14:36.854Z,9.82
2024-02-21T23:17:03.646Z,9.90
2024-02-21T23:19:30.364Z,9.92
2024-02-21T23:21:57.201Z,9.91
2024-02-21T23:24:24.866Z,9.88
2024-02-21T23:26:51.539Z,9.90
2024-02-21T23:29:18.435Z,9.90
2024-02-21T23:31:45.211Z,9.97
2024-02-21T23:34:11.954Z,10.00
2024-02-21T23:36:38.660Z,10.03
2024-02-21T23:39:07.320Z,9.88
2024-02-21T23:41:33.996Z,10.04
2024-02-21T23:44:00.877Z,10.01
2024-02-21T23:46:27.809Z,10.05
2024-02-21T23:49:00.349Z,9.98
2024-02-21T23:51:27.833Z,10.10
2024-02-21T23:53:54.523Z,10.09
2024-02-21T23:56:21.268Z,10.13
2024-02-21T23:58:48.077Z,10.07
